UDYZUMKK

Guest
Details From UDYZ - Zvartnots
To UMKK - Khrabrovo
Flight Number -
Tags Generated
Created
Modified
Stats Distance 1,298 nm / 2,404 km
Max Altitude 0 ft / 0 m
Waypoints 5
Social Downloads 1
Likes 0
Share VATSIM

Download

Looking for another format? Having issues loading an existing format? Contact us
Advertisement - Login to hide

Notes

Generated

Route

UDYZ AKONA NEDIL DILGI UMKK

ID Type Via Altitude Latitude Longitude Leg Dist Tot Dist Heading (true) Name
O UDYZ APT - 0 ft / 0 m 40.14715˚ 44.37329˚ - 0 nm - -
AKONA FIX - 0 ft / 0 m 47.97145˚ 34.13502˚ 643 nm 643 nm 320° / 313° -
NEDIL FIX - 0 ft / 0 m 50.25667˚ 30.42200˚ 200 nm 844 nm 315° / 312° -
DILGI FIX - 0 ft / 0 m 54.70000˚ 21.15000˚ 430 nm 1275 nm 312° / 304° -
O UMKK APT - 0 ft / 0 m 54.88548˚ 20.57484˚ 22 nm 1298 nm 299° / 299° -

Altitude Profile

Advertisement - Login to hide

Weather


0- 5 10 15 20 25 30 35+ Temperature / ° C

Clouds and Precipitation
Forecast for 2018-05-26 00:00 UTC. Updated 2 hours ago

Ground ~20,000 ft ~40,000 ft Winds

UDYZ

Details ICAO UDYZ (EVN)
Name ZVARTNOTS
Region Armenia
Timezone Asia/Yerevan (UTC+4.0)
Stats Elevation 2,838 ft / 865 m (AMSL)
Location 40.147271° 44.395880°
Runways 1
Magnetic Variation 6.235° E

METAR

UDYZ 260100Z 00000KT 9999 NSC 13/12 Q1013 R09/000070 NOSIG

Decode

TAF

Not found

Departure Runways

ID Width Length Bearing (true) Bearing (mag) Surface Threshold Offset Overrun Length
09 184 ft / 56 m 12,601 ft / 3,841 m 89.59° 83.36° Asphalt 0 ft / 0 m 0 ft / 0 m
27 184 ft / 56 m 12,601 ft / 3,841 m 269.62° 263.39° Asphalt 0 ft / 0 m 0 ft / 0 m

UMKK

Details ICAO UMKK (KGD)
Name KHRABROVO
Region Belarus and Russia (Kaliningrad Oblast)
Timezone Europe/Kaliningrad (UTC+2.0)
Stats Elevation 42 ft / 13 m (AMSL)
Location 54.890049° 20.592635°
Runways 1
Magnetic Variation 6.228° E

METAR

UMKK 260100Z 09003MPS 9999 SCT048CB 16/14 Q1024 R06/29//55 NOSIG RMK QFE767/1022

Decode

TAF

TAF UMKK 252301Z 2600/2624 08005MPS 5000 -SHRA BKN011 BKN020CB TEMPO 2600/2624 3100 -SHRA BR BKN007 BKN012CB BECMG 2609/2611 VRB01MPS PROB40 TEMPO 2612/2621 -TSRA BKN015CB

Decode

Destination Runways

ID Width Length Bearing (true) Bearing (mag) Surface Threshold Offset Overrun Length
06 148 ft / 45 m 8,180 ft / 2,493 m 65.93° 59.70° Concrete 0 ft / 0 m 0 ft / 0 m
24 148 ft / 45 m 8,180 ft / 2,493 m 245.96° 239.73° Concrete 0 ft / 0 m 0 ft / 0 m

Approach Navaids

Runway Type Ident Frequency Range Bearing (true) Bearing (mag) Slope Elevation
24 Localiser IKR 109.50 MHz 18 nm / 33 km 245.00° 238.77° - 42 ft / 13 m (AMSL)
24 Glidescope IKR 109.50 MHz 10 nm / 19 km 245.95° 239.72° 2.70° 42 ft / 13 m (AMSL)